Time;durP1;ratioP1;P1;durP2;ratioP2;P2;SDS_P1;SDS_P2;PMS_P1;PMS_P2;Temp;Humidity;BMP_temperature;BMP_pressure;BME280_temperature;BME280_humidity;BME280_pressure;Samples;Min_cycle;Max_cycle;Signal;HPM_P1;HPM_P2
2022/09/22 00:01:38;;;;;;;8.03;4.30;;;11.00;99.90;;;;;;5065595;28;20452;-81
2022/09/22 00:04:23;;;;;;;4.80;3.83;;;10.90;99.90;;;;;;5065101;28;20386;-80
2022/09/22 00:07:07;;;;;;;4.10;3.20;;;10.80;99.90;;;;;;5067008;28;20382;-80
2022/09/22 00:09:52;;;;;;;4.17;3.70;;;10.80;99.90;;;;;;5066514;28;20432;-79
2022/09/22 00:12:37;;;;;;;6.53;4.93;;;10.70;99.90;;;;;;5067387;28;20390;-80
2022/09/22 00:15:22;;;;;;;5.73;3.67;;;10.70;99.90;;;;;;5065914;28;20413;-80
2022/09/22 00:18:06;;;;;;;5.57;4.10;;;10.70;99.90;;;;;;5065251;28;20528;-80
2022/09/22 00:20:51;;;;;;;4.20;3.80;;;10.70;99.90;;;;;;5065190;28;20521;-80
2022/09/22 00:23:37;;;;;;;5.67;4.37;;;10.80;99.90;;;;;;5064382;28;20397;-79
2022/09/22 00:26:23;;;;;;;6.93;4.00;;;10.80;99.90;;;;;;5063958;28;20409;-80
2022/09/22 00:29:08;;;;;;;5.50;3.80;;;10.80;99.90;;;;;;5065532;28;20377;-80
2022/09/22 00:31:53;;;;;;;4.30;3.90;;;10.80;99.90;;;;;;5064281;28;20394;-80
2022/09/22 00:34:38;;;;;;;3.57;3.27;;;10.70;99.90;;;;;;5064007;28;20436;-79
2022/09/22 00:37:22;;;;;;;6.70;3.33;;;10.70;99.90;;;;;;5064928;28;20425;-81
2022/09/22 00:40:09;;;;;;;6.70;3.50;;;10.80;99.90;;;;;;5064481;28;20557;-82
2022/09/22 00:42:53;;;;;;;6.17;4.00;;;10.70;99.90;;;;;;5063227;28;20386;-81
2022/09/22 00:45:38;;;;;;;4.67;3.60;;;10.70;99.90;;;;;;5064793;28;20433;-81
2022/09/22 00:48:26;;;;;;;5.13;3.80;;;10.70;99.90;;;;;;5062638;28;20386;-81
2022/09/22 00:51:14;;;;;;;5.53;4.10;;;10.70;99.90;;;;;;5063992;28;20449;-81
2022/09/22 00:54:03;;;;;;;7.73;4.30;;;10.50;99.90;;;;;;5064072;28;20398;-82
2022/09/22 00:56:56;;;;;;;6.07;4.40;;;10.40;99.90;;;;;;5063986;28;20425;-81
2022/09/22 00:59:42;;;;;;;5.20;3.97;;;10.40;99.90;;;;;;5062369;28;20921;-80
2022/09/22 01:02:27;;;;;;;6.83;4.30;;;10.50;99.90;;;;;;5063972;28;20464;-80
2022/09/22 01:05:12;;;;;;;5.13;4.03;;;10.50;99.90;;;;;;5063579;28;20386;-80
2022/09/22 01:07:56;;;;;;;4.30;4.00;;;10.60;99.90;;;;;;5065140;28;20387;-81
2022/09/22 01:10:42;;;;;;;5.37;3.50;;;10.60;99.90;;;;;;5064099;28;20751;-81
2022/09/22 01:13:35;;;;;;;3.87;3.47;;;10.50;99.90;;;;;;5063463;28;20393;-80
2022/09/22 01:17:00;;;;;;;5.40;3.13;;;10.60;99.90;;;;;;5063668;28;20382;-80
2022/09/22 01:20:14;;;;;;;8.00;4.63;;;10.60;99.90;;;;;;5062857;28;20973;-81
2022/09/22 01:23:24;;;;;;;8.43;3.87;;;10.30;99.90;;;;;;5063465;28;20437;-81
2022/09/22 01:26:37;;;;;;;4.70;3.83;;;10.20;99.90;;;;;;5064131;28;20432;-81
2022/09/22 01:29:57;;;;;;;3.70;3.40;;;10.30;99.90;;;;;;5063648;28;20418;-80
2022/09/22 01:32:57;;;;;;;4.13;3.70;;;10.30;99.90;;;;;;5064387;28;20425;-81
2022/09/22 01:35:56;;;;;;;4.43;4.00;;;10.40;99.90;;;;;;5064123;28;20394;-81
2022/09/22 01:38:53;;;;;;;3.93;3.63;;;10.30;99.90;;;;;;5064051;28;20414;-81
2022/09/22 01:41:57;;;;;;;4.30;3.33;;;10.20;99.90;;;;;;5064175;28;20386;-81
2022/09/22 01:44:51;;;;;;;7.67;4.40;;;10.10;99.90;;;;;;5063307;28;20404;-80
2022/09/22 01:47:44;;;;;;;4.13;3.73;;;10.10;99.90;;;;;;5063399;28;20410;-80
2022/09/22 01:50:34;;;;;;;4.00;3.60;;;10.00;99.90;;;;;;5061925;28;20405;-81
2022/09/22 01:53:22;;;;;;;5.90;4.00;;;9.90;99.90;;;;;;5062814;28;20450;-79
2022/09/22 01:56:10;;;;;;;4.77;3.97;;;10.00;99.90;;;;;;5048124;28;20429;-81
2022/09/22 01:59:00;;;;;;;6.17;4.60;;;10.10;99.90;;;;;;5063821;28;20483;-81
2022/09/22 02:01:51;;;;;;;12.80;5.10;;;10.10;99.90;;;;;;5062682;28;20461;-81
2022/09/22 02:04:44;;;;;;;5.90;4.07;;;10.10;99.90;;;;;;5062698;28;20386;-81
2022/09/22 02:07:34;;;;;;;7.73;4.00;;;10.10;99.90;;;;;;5047803;28;20458;-81
2022/09/22 02:10:25;;;;;;;6.83;4.53;;;10.10;99.90;;;;;;5063153;28;20827;-81
2022/09/22 02:13:10;;;;;;;6.23;4.77;;;10.10;99.90;;;;;;5063955;28;20456;-81
2022/09/22 02:16:01;;;;;;;4.40;4.00;;;10.10;99.90;;;;;;5062853;28;20401;-81
2022/09/22 02:18:50;;;;;;;4.03;3.37;;;10.20;99.90;;;;;;5063307;28;20445;-81
2022/09/22 02:21:37;;;;;;;7.27;4.47;;;10.20;99.90;;;;;;5062304;28;20390;-81
2022/09/22 02:24:33;;;;;;;5.13;3.83;;;10.10;99.90;;;;;;5062082;28;20419;-82
2022/09/22 02:27:25;;;;;;;6.93;4.07;;;10.10;99.90;;;;;;5062633;28;20397;-81
2022/09/22 02:30:12;;;;;;;7.87;4.57;;;10.00;99.90;;;;;;5062418;28;20394;-81
2022/09/22 02:32:58;;;;;;;6.73;5.10;;;10.00;99.90;;;;;;5063341;28;20390;-80
2022/09/22 02:35:46;;;;;;;5.70;3.70;;;10.00;99.90;;;;;;5062754;28;20905;-81
2022/09/22 02:38:43;;;;;;;7.90;5.10;;;10.10;99.90;;;;;;5062209;28;20481;-80
2022/09/22 02:41:39;;;;;;;5.83;4.27;;;10.00;99.90;;;;;;5062169;28;20424;-81
2022/09/22 02:44:37;;;;;;;7.13;4.20;;;10.10;99.90;;;;;;5073046;28;20413;-79
2022/09/22 02:47:59;;;;;;;7.60;4.90;;;10.00;99.90;;;;;;5067272;28;20398;-81
2022/09/22 02:50:45;;;;;;;10.13;5.70;;;10.00;99.90;;;;;;5062110;28;20394;-81
2022/09/22 02:53:33;;;;;;;5.40;4.90;;;10.00;99.90;;;;;;5062597;28;20733;-81
2022/09/22 02:56:18;;;;;;;6.40;4.70;;;10.00;99.90;;;;;;5065181;28;20433;-81
2022/09/22 02:59:02;;;;;;;6.93;5.20;;;10.00;99.90;;;;;;5065697;28;20961;-81
2022/09/22 03:01:48;;;;;;;8.07;5.77;;;10.00;99.90;;;;;;5065616;28;20454;-81
2022/09/22 03:04:33;;;;;;;6.40;4.93;;;10.00;99.90;;;;;;5066997;28;20393;-81
2022/09/22 03:07:19;;;;;;;15.57;5.73;;;9.90;99.90;;;;;;5067285;28;20421;-81
2022/09/22 03:10:05;;;;;;;6.97;4.73;;;9.90;99.90;;;;;;5068341;28;20389;-79
2022/09/22 03:12:50;;;;;;;11.23;5.57;;;9.80;99.90;;;;;;5075002;28;20390;-79
2022/09/22 03:15:34;;;;;;;6.90;5.20;;;9.80;99.90;;;;;;5074808;28;20429;-79
2022/09/22 03:18:19;;;;;;;6.63;5.43;;;9.90;99.90;;;;;;5075234;28;20417;-78
2022/09/22 03:21:04;;;;;;;8.43;5.07;;;9.90;99.90;;;;;;5073556;28;20414;-79
2022/09/22 03:23:50;;;;;;;5.13;4.63;;;9.90;99.90;;;;;;5065477;28;20381;-81
2022/09/22 03:26:35;;;;;;;8.20;5.80;;;9.80;99.90;;;;;;5065272;28;20428;-79
2022/09/22 03:29:19;;;;;;;4.17;3.60;;;9.50;99.90;;;;;;5065582;28;20428;-80
2022/09/22 03:32:05;;;;;;;4.70;4.30;;;9.60;99.90;;;;;;5065543;28;20418;-79
2022/09/22 03:34:50;;;;;;;5.13;4.63;;;9.70;99.90;;;;;;5064935;28;20386;-79
2022/09/22 03:37:34;;;;;;;4.50;4.10;;;9.70;99.90;;;;;;5065264;28;20413;-79
2022/09/22 03:40:20;;;;;;;6.27;5.00;;;9.60;99.90;;;;;;5064846;28;20525;-79
2022/09/22 03:43:05;;;;;;;3.97;3.63;;;9.50;99.90;;;;;;5065863;28;20450;-80
2022/09/22 03:45:58;;;;;;;5.80;4.70;;;9.40;99.90;;;;;;5063945;28;20831;-82
2022/09/22 03:48:42;;;;;;;4.37;3.97;;;9.50;99.90;;;;;;5063188;28;20529;-81
2022/09/22 03:51:27;;;;;;;6.23;4.47;;;9.50;99.90;;;;;;5063251;28;20406;-82
2022/09/22 03:54:12;;;;;;;5.40;4.77;;;9.50;99.90;;;;;;5065134;28;20383;-81
2022/09/22 03:56:57;;;;;;;4.87;3.93;;;9.20;99.90;;;;;;5062317;28;20429;-81
2022/09/22 03:59:42;;;;;;;5.50;4.23;;;9.40;99.90;;;;;;5063703;28;20453;-81
2022/09/22 04:02:26;;;;;;;6.00;4.73;;;9.40;99.90;;;;;;5063708;28;20425;-81
2022/09/22 04:05:11;;;;;;;7.53;5.30;;;9.40;99.90;;;;;;5064828;28;20886;-81
2022/09/22 04:07:55;;;;;;;5.37;4.87;;;9.30;99.90;;;;;;5064255;28;20382;-81
2022/09/22 04:10:40;;;;;;;9.07;4.70;;;9.30;99.90;;;;;;5064885;28;20374;-81
2022/09/22 04:13:26;;;;;;;11.80;6.03;;;9.30;99.90;;;;;;5064906;28;20835;-81
2022/09/22 04:16:10;;;;;;;5.23;4.67;;;9.00;99.90;;;;;;5064108;28;20405;-82
2022/09/22 04:18:55;;;;;;;6.50;5.30;;;9.00;99.90;;;;;;5064737;28;20485;-82
2022/09/22 04:21:40;;;;;;;5.40;4.20;;;9.10;99.90;;;;;;5063678;28;20393;-83
2022/09/22 04:24:25;;;;;;;5.50;4.17;;;9.00;99.90;;;;;;5063489;28;20427;-80
2022/09/22 04:27:09;;;;;;;5.27;4.70;;;8.50;99.90;;;;;;5065026;28;20379;-82
2022/09/22 04:29:54;;;;;;;5.90;4.20;;;8.80;99.90;;;;;;5064995;28;20398;-83
2022/09/22 04:32:39;;;;;;;5.20;4.67;;;8.80;99.90;;;;;;5065849;28;20389;-81
2022/09/22 04:35:24;;;;;;;6.70;4.03;;;8.40;99.90;;;;;;5065166;28;20429;-81
2022/09/22 04:38:09;;;;;;;8.20;4.70;;;8.40;99.90;;;;;;5064355;28;20389;-82
2022/09/22 04:40:54;;;;;;;6.53;4.53;;;8.40;99.90;;;;;;5065070;28;20521;-83
2022/09/22 04:43:39;;;;;;;4.10;3.63;;;8.20;99.90;;;;;;5066126;28;20448;-82
2022/09/22 04:46:25;;;;;;;7.80;4.37;;;8.60;99.90;;;;;;5071608;28;20417;-79
2022/09/22 04:49:09;;;;;;;5.10;4.23;;;8.80;99.90;;;;;;5076140;28;20394;-79
2022/09/22 04:51:54;;;;;;;15.03;5.40;;;8.90;99.90;;;;;;5076461;28;20416;-79
2022/09/22 04:54:39;;;;;;;7.00;5.60;;;9.00;99.90;;;;;;5073120;28;20432;-81
2022/09/22 04:57:23;;;;;;;11.33;5.60;;;9.00;99.90;;;;;;5064186;28;20429;-81
2022/09/22 05:00:09;;;;;;;14.47;4.83;;;9.00;99.90;;;;;;5064541;28;20576;-82
2022/09/22 05:02:54;;;;;;;5.40;4.90;;;9.00;99.90;;;;;;5065613;28;20406;-81
2022/09/22 05:05:39;;;;;;;4.83;4.23;;;9.10;99.90;;;;;;5064744;28;20377;-81
2022/09/22 05:08:23;;;;;;;6.70;5.27;;;9.10;99.90;;;;;;5065238;28;20393;-82
2022/09/22 05:11:08;;;;;;;10.27;4.33;;;9.10;99.90;;;;;;5065537;28;20421;-81
2022/09/22 05:13:52;;;;;;;10.50;6.87;;;9.00;99.90;;;;;;5064006;28;20493;-81
2022/09/22 05:16:38;;;;;;;7.17;5.70;;;8.80;99.90;;;;;;5064694;28;20886;-81
2022/09/22 05:19:22;;;;;;;10.07;5.17;;;8.90;99.90;;;;;;5063374;28;20425;-81
2022/09/22 05:22:07;;;;;;;6.17;5.43;;;8.90;99.90;;;;;;5050838;28;20422;-81
2022/09/22 05:24:52;;;;;;;6.40;5.80;;;9.00;99.90;;;;;;5062255;28;20425;-81
2022/09/22 05:27:42;;;;;;;5.90;4.70;;;9.10;99.90;;;;;;5063142;28;20378;-81
2022/09/22 05:30:27;;;;;;;20.03;6.63;;;9.10;99.90;;;;;;5063067;28;20429;-81
2022/09/22 05:33:12;;;;;;;10.17;5.97;;;8.90;99.90;;;;;;5062492;28;20500;-81
2022/09/22 05:35:57;;;;;;;10.83;5.20;;;9.00;99.90;;;;;;5062184;28;20440;-81
2022/09/22 05:38:42;;;;;;;8.83;5.57;;;9.10;99.90;;;;;;5063334;28;20386;-81
2022/09/22 05:41:26;;;;;;;15.83;5.40;;;9.10;99.90;;;;;;5063842;28;20441;-81
2022/09/22 05:44:11;;;;;;;12.53;5.77;;;9.00;99.90;;;;;;5056623;28;20435;-81
2022/09/22 05:46:56;;;;;;;12.20;4.63;;;9.00;99.90;;;;;;5058863;28;20448;-79
2022/09/22 05:49:40;;;;;;;6.60;6.00;;;9.00;99.90;;;;;;5066560;28;20436;-80
2022/09/22 05:52:25;;;;;;;11.17;6.60;;;9.10;99.90;;;;;;5068673;28;20433;-80
2022/09/22 05:55:12;;;;;;;14.33;6.70;;;9.10;99.90;;;;;;5067203;28;20497;-80
2022/09/22 05:57:57;;;;;;;9.63;5.27;;;9.10;99.90;;;;;;5058072;28;20502;-81
2022/09/22 06:00:41;;;;;;;6.50;5.37;;;9.20;99.90;;;;;;5069714;28;20512;-81
2022/09/22 06:03:26;;;;;;;8.53;5.60;;;9.20;99.90;;;;;;5056359;28;20430;-82
2022/09/22 06:06:11;;;;;;;8.13;5.47;;;9.30;99.90;;;;;;5059459;28;20461;-81
2022/09/22 06:08:56;;;;;;;8.77;5.50;;;9.10;99.90;;;;;;5055784;28;20433;-82
2022/09/22 06:11:40;;;;;;;7.67;5.37;;;9.20;99.90;;;;;;5055772;28;20493;-81
2022/09/22 06:14:25;;;;;;;13.23;6.23;;;9.20;99.90;;;;;;5047284;28;20441;-81
2022/09/22 06:17:11;;;;;;;15.03;7.03;;;9.30;99.90;;;;;;5054602;28;20430;-81
2022/09/22 06:19:55;;;;;;;10.53;6.60;;;9.40;99.90;;;;;;5066942;28;20518;-81
2022/09/22 06:22:40;;;;;;;8.17;4.97;;;9.40;99.90;;;;;;5060637;28;20502;-80
2022/09/22 06:25:27;;;;;;;11.07;5.43;;;9.20;99.90;;;;;;5057343;28;20968;-80
2022/09/22 06:28:13;;;;;;;7.00;5.13;;;9.10;99.90;;;;;;5058358;28;20518;-80
2022/09/22 06:30:58;;;;;;;6.73;5.67;;;9.00;99.90;;;;;;5060425;28;20462;-80
2022/09/22 06:33:47;;;;;;;9.43;5.70;;;9.00;99.90;;;;;;5059749;28;20469;-80
2022/09/22 06:36:31;;;;;;;10.30;6.30;;;9.00;99.90;;;;;;5054724;28;20444;-82
2022/09/22 06:39:16;;;;;;;9.27;5.50;;;8.90;99.90;;;;;;5060113;28;20531;-81
2022/09/22 06:42:01;;;;;;;22.03;5.60;;;9.00;99.90;;;;;;5059668;28;20417;-82
2022/09/22 06:44:46;;;;;;;14.47;6.90;;;9.10;99.90;;;;;;5060678;28;20422;-80
2022/09/22 06:47:31;;;;;;;6.10;5.50;;;8.90;99.90;;;;;;5059221;28;20429;-82
2022/09/22 06:50:16;;;;;;;8.33;6.00;;;9.00;99.90;;;;;;5063456;28;20481;-81
2022/09/22 06:53:05;;;;;;;7.17;6.43;;;9.10;99.90;;;;;;5053590;28;21003;-81
2022/09/22 06:55:50;;;;;;;9.30;5.30;;;9.00;99.90;;;;;;5055152;28;20861;-81
2022/09/22 06:58:34;;;;;;;10.63;6.40;;;8.80;99.90;;;;;;5055887;28;20437;-81
2022/09/22 07:01:22;;;;;;;4.63;4.23;;;8.30;99.90;;;;;;5056997;28;20464;-80
2022/09/22 07:04:07;;;;;;;5.07;4.57;;;8.50;99.90;;;;;;5060365;28;20425;-81
2022/09/22 07:06:52;;;;;;;7.13;5.23;;;8.20;99.90;;;;;;5065284;28;20441;-81
2022/09/22 07:09:37;;;;;;;5.23;4.70;;;8.20;99.90;;;;;;5063883;28;20448;-80
2022/09/22 07:12:22;;;;;;;8.03;5.97;;;8.60;99.90;;;;;;5055535;28;20833;-79
2022/09/22 07:15:07;;;;;;;8.40;6.03;;;8.90;99.90;;;;;;5069916;28;20456;-80
2022/09/22 07:17:52;;;;;;;6.93;6.30;;;8.60;99.90;;;;;;5060322;28;20456;-81
2022/09/22 07:20:36;;;;;;;6.67;5.03;;;8.90;99.90;;;;;;5062310;28;20453;-82
2022/09/22 07:23:21;;;;;;;8.13;6.07;;;9.00;99.90;;;;;;5061954;28;20426;-80
2022/09/22 07:26:10;;;;;;;8.20;5.73;;;9.30;99.90;;;;;;5075164;28;20462;-81
2022/09/22 07:28:58;;;;;;;12.23;6.83;;;9.50;99.90;;;;;;5064572;28;20510;-81
2022/09/22 07:31:44;;;;;;;6.27;5.63;;;9.60;99.90;;;;;;5057102;28;20432;-80
2022/09/22 07:34:28;;;;;;;7.00;5.80;;;9.50;99.90;;;;;;5055005;28;20429;-81
2022/09/22 07:37:14;;;;;;;6.50;5.80;;;8.80;99.90;;;;;;5060240;28;20453;-80
2022/09/22 07:40:01;;;;;;;6.60;5.90;;;8.50;99.90;;;;;;5062140;28;20846;-80
2022/09/22 07:42:48;;;;;;;8.60;7.27;;;8.40;99.90;;;;;;5064136;28;20532;-81
2022/09/22 07:45:32;;;;;;;7.30;5.20;;;9.30;99.90;;;;;;5056506;28;20429;-82
2022/09/22 07:51:21;;;;;;;6.07;5.30;;;9.90;99.90;;;;;;5050446;28;20433;-81
2022/09/22 07:54:06;;;;;;;9.30;5.80;;;10.20;99.90;;;;;;5063245;28;20424;-80
2022/09/22 07:56:54;;;;;;;9.83;6.50;;;10.50;99.90;;;;;;5058890;28;20499;-80
2022/09/22 07:59:40;;;;;;;6.80;5.93;;;10.70;99.90;;;;;;5058088;28;20473;-81
2022/09/22 08:02:27;;;;;;;7.50;6.47;;;10.90;99.90;;;;;;5068938;28;20537;-81
2022/09/22 08:05:14;;;;;;;9.63;7.30;;;11.10;99.90;;;;;;5061957;28;20906;-80
2022/09/22 08:08:01;;;;;;;6.20;5.60;;;10.70;99.90;;;;;;5056018;28;20480;-80
2022/09/22 08:10:45;;;;;;;6.70;6.10;;;10.90;99.90;;;;;;5057545;28;20501;-80
2022/09/22 08:13:30;;;;;;;7.30;6.37;;;10.90;99.90;;;;;;5058553;28;20441;-81
2022/09/22 08:16:17;;;;;;;8.27;6.57;;;11.10;99.90;;;;;;5056552;28;20829;-79
2022/09/22 08:19:10;;;;;;;9.43;6.87;;;11.20;99.90;;;;;;5049102;28;20457;-81
2022/09/22 08:21:55;;;;;;;8.13;6.70;;;11.30;99.90;;;;;;5056579;28;20493;-83
2022/09/22 08:24:43;;;;;;;6.80;6.20;;;11.40;99.90;;;;;;5052769;28;20473;-82
2022/09/22 08:27:28;;;;;;;11.60;6.77;;;11.50;99.90;;;;;;5058579;28;20847;-81
2022/09/22 08:30:13;;;;;;;5.83;5.33;;;11.70;99.90;;;;;;5062304;28;20476;-81
2022/09/22 08:33:00;;;;;;;8.53;6.70;;;11.40;99.90;;;;;;5052978;28;20552;-81
2022/09/22 08:36:02;;;;;;;8.07;5.60;;;11.10;99.90;;;;;;5057707;28;20433;-81
2022/09/22 08:38:48;;;;;;;12.60;6.27;;;11.40;99.90;;;;;;5056978;28;20519;-82
2022/09/22 08:41:48;;;;;;;5.60;5.00;;;11.80;99.90;;;;;;5056430;28;20426;-82
2022/09/22 08:44:45;;;;;;;5.87;5.27;;;11.60;99.90;;;;;;5055240;28;20488;-82
2022/09/22 08:54:03;;;;;;;8.60;5.10;;;12.10;99.90;;;;;;5051744;28;20928;-81
2022/09/22 08:56:59;;;;;;;8.23;5.73;;;12.60;99.90;;;;;;5060676;28;20541;-82
2022/09/22 09:00:01;;;;;;;10.90;6.60;;;12.90;99.90;;;;;;5054291;28;20544;-82
2022/09/22 09:03:06;;;;;;;8.80;6.67;;;12.80;99.90;;;;;;5052831;28;20567;-82
2022/09/22 09:06:17;;;;;;;8.40;6.37;;;13.30;99.90;;;;;;5053182;28;20441;-81
2022/09/22 09:09:16;;;;;;;7.40;6.43;;;14.00;99.90;;;;;;5041205;28;20498;-82
2022/09/22 09:12:28;;;;;;;6.73;5.37;;;14.30;99.90;;;;;;5053479;28;20430;-82
2022/09/22 09:15:42;;;;;;;5.93;5.43;;;14.60;99.90;;;;;;5055960;28;20510;-81
2022/09/22 09:18:32;;;;;;;7.50;5.70;;;14.80;99.90;;;;;;5055066;28;20491;-81
2022/09/22 09:21:16;;;;;;;5.33;4.80;;;15.30;99.90;;;;;;5056858;28;20449;-82
2022/09/22 09:24:05;;;;;;;7.90;5.33;;;15.50;99.90;;;;;;5052446;28;20441;-80
2022/09/22 09:26:51;;;;;;;6.47;5.07;;;15.80;99.90;;;;;;5056861;28;20421;-81
2022/09/22 09:29:43;;;;;;;5.10;4.70;;;16.10;99.90;;;;;;5057152;28;20429;-80
2022/09/22 09:32:44;;;;;;;6.70;5.20;;;16.50;99.90;;;;;;5056295;28;20430;-81
2022/09/22 09:35:43;;;;;;;5.47;5.00;;;17.00;99.90;;;;;;5013420;28;20435;-82
2022/09/22 09:38:33;;;;;;;8.77;5.87;;;17.20;99.90;;;;;;5003190;28;20478;-83
2022/09/22 09:41:22;;;;;;;5.30;4.80;;;17.70;99.90;;;;;;5011247;28;20488;-83
2022/09/22 09:44:13;;;;;;;4.37;3.93;;;18.10;99.90;;;;;;5015951;28;20460;-83
2022/09/22 09:47:18;;;;;;;5.30;4.80;;;18.30;99.90;;;;;;5010804;28;20509;-83
2022/09/22 09:50:04;;;;;;;6.77;3.47;;;18.70;99.90;;;;;;5013176;28;20955;-80
2022/09/22 09:52:49;;;;;;;4.90;3.47;;;18.70;99.90;;;;;;5017351;28;20431;-83
2022/09/22 09:55:34;;;;;;;4.20;3.63;;;19.40;99.90;;;;;;5013581;28;20440;-80
2022/09/22 10:01:22;;;;;;;6.40;3.10;;;19.40;99.90;;;;;;5011266;28;20512;-83
2022/09/22 10:04:27;;;;;;;4.40;2.80;;;19.80;99.90;;;;;;5006055;28;20505;-81
2022/09/22 10:07:16;;;;;;;4.30;3.37;;;19.70;99.90;;;;;;5056931;28;20476;-81
2022/09/22 10:10:30;;;;;;;6.30;3.50;;;20.00;99.90;;;;;;5056259;28;20452;-83
2022/09/22 10:13:22;;;;;;;3.20;2.97;;;20.70;99.90;;;;;;5062413;28;20472;-83
2022/09/22 10:16:24;;;;;;;3.13;2.93;;;20.30;99.50;;;;;;5054131;28;20429;-83
2022/09/22 10:19:26;;;;;;;4.73;3.00;;;20.60;98.80;;;;;;5059724;28;20461;-82
2022/09/22 10:22:24;;;;;;;3.10;2.37;;;21.00;99.90;;;;;;5057025;28;20416;-83
2022/09/22 10:25:21;;;;;;;2.63;2.43;;;20.90;96.90;;;;;;5065080;28;20421;-83
2022/09/22 10:28:13;;;;;;;2.50;2.30;;;19.90;97.50;;;;;;5058132;28;20421;-83
2022/09/22 10:30:59;;;;;;;5.00;3.07;;;21.00;97.30;;;;;;5026142;28;20442;-82
2022/09/22 10:33:55;;;;;;;2.40;2.30;;;20.70;96.00;;;;;;5057093;28;20500;-83
2022/09/22 10:36:44;;;;;;;2.40;2.20;;;19.60;98.80;;;;;;5051298;28;20438;-80
2022/09/22 10:39:38;;;;;;;2.93;2.73;;;20.70;96.40;;;;;;5056314;28;20457;-82
2022/09/22 10:42:32;;;;;;;4.23;2.80;;;19.90;97.20;;;;;;5057781;28;20708;-83
2022/09/22 10:45:18;;;;;;;3.20;2.50;;;19.90;96.90;;;;;;5060064;28;20438;-82
2022/09/22 10:48:19;;;;;;;2.07;1.97;;;21.00;95.00;;;;;;5075306;28;20449;-82
2022/09/22 10:51:14;;;;;;;2.80;2.00;;;20.30;93.20;;;;;;5059699;28;20457;-82
2022/09/22 10:54:17;;;;;;;3.07;2.77;;;21.60;94.80;;;;;;5057651;28;20429;-81
2022/09/22 10:57:09;;;;;;;3.23;2.23;;;22.30;92.80;;;;;;5062513;28;20445;-82
2022/09/22 11:00:15;;;;;;;6.93;3.60;;;22.30;91.20;;;;;;5057163;28;20456;-81
2022/09/22 11:03:31;;;;;;;3.40;3.10;;;21.00;92.20;;;;;;5061474;28;20526;-82
2022/09/22 11:13:12;;;;;;;1.70;1.60;;;21.90;89.60;;;;;;5053569;28;20433;-82
2022/09/22 11:16:33;;;;;;;3.47;2.10;;;22.60;85.80;;;;;;5058376;28;20432;-83
2022/09/22 11:19:42;;;;;;;2.20;2.00;;;23.00;83.80;;;;;;5065934;28;20517;-82
2022/09/22 11:22:55;;;;;;;2.07;1.93;;;20.30;85.80;;;;;;5054538;28;20429;-81
2022/09/22 11:26:03;;;;;;;3.20;1.90;;;22.50;84.60;;;;;;5053608;28;20421;-81
2022/09/22 11:29:06;;;;;;;2.27;1.87;;;24.20;77.20;;;;;;5061641;28;20968;-82
2022/09/22 11:32:14;;;;;;;2.10;1.90;;;22.90;76.00;;;;;;5062519;28;20463;-82
2022/09/22 11:35:24;;;;;;;2.40;2.20;;;23.40;75.60;;;;;;5062242;28;20478;-82
2022/09/22 11:38:30;;;;;;;3.53;2.30;;;23.90;78.50;;;;;;5063409;28;20451;-83
2022/09/22 11:41:28;;;;;;;2.00;1.80;;;24.40;73.20;;;;;;5061725;28;20498;-83
2022/09/22 11:44:35;;;;;;;2.80;2.00;;;25.30;67.50;;;;;;5057077;28;20739;-81
2022/09/22 11:47:36;;;;;;;2.00;1.90;;;25.40;70.60;;;;;;5046725;28;20436;-81
2022/09/22 11:50:44;;;;;;;3.57;2.63;;;26.20;66.70;;;;;;5060741;28;20934;-83
2022/09/22 11:53:57;;;;;;;2.33;1.93;;;26.00;65.00;;;;;;5060343;28;20422;-82
2022/09/22 11:56:49;;;;;;;2.53;2.33;;;26.90;63.00;;;;;;5053080;28;20597;-82
2022/09/22 11:59:44;;;;;;;2.25;1.60;;;27.30;61.60;;;;;;5060952;28;20435;-83
2022/09/22 12:02:45;;;;;;;3.17;2.60;;;26.00;61.40;;;;;;5056108;28;20253;-82
2022/09/22 12:05:38;;;;;;;5.03;2.30;;;23.10;64.10;;;;;;5058028;28;20544;-81
2022/09/22 12:08:32;;;;;;;2.10;2.00;;;20.80;72.00;;;;;;5053902;28;20508;-80
2022/09/22 12:11:19;;;;;;;3.20;2.40;;;19.90;77.50;;;;;;5042820;28;20445;-80
2022/09/22 12:14:05;;;;;;;5.10;3.13;;;20.50;77.50;;;;;;5051188;28;20512;-80
2022/09/22 12:17:00;;;;;;;2.60;1.80;;;20.90;75.50;;;;;;5035326;28;20824;-80
2022/09/22 12:20:04;;;;;;;2.10;2.00;;;20.60;77.50;;;;;;5046314;28;20507;-81
2022/09/22 12:23:14;;;;;;;2.90;2.53;;;20.60;77.20;;;;;;5043442;28;20638;-79
2022/09/22 12:26:05;;;;;;;2.20;2.10;;;20.50;78.70;;;;;;5049891;28;20473;-81
2022/09/22 12:28:49;;;;;;;3.10;2.43;;;20.10;83.50;;;;;;5049879;28;20989;-81
2022/09/22 12:31:38;;;;;;;4.60;1.90;;;20.00;84.60;;;;;;5047615;28;20430;-79
2022/09/22 12:34:33;;;;;;;2.80;2.30;;;19.70;82.60;;;;;;5045869;28;20532;-80
2022/09/22 12:37:29;;;;;;;2.20;2.00;;;19.60;82.60;;;;;;5028156;28;20509;-80
2022/09/22 12:40:34;;;;;;;3.30;3.00;;;19.50;81.90;;;;;;5052531;28;20583;-79
2022/09/22 12:43:23;;;;;;;2.40;2.10;;;19.70;82.80;;;;;;5028781;28;20901;-80
2022/09/22 12:46:28;;;;;;;5.10;2.40;;;20.90;84.00;;;;;;4994853;28;20440;-82
2022/09/22 12:49:19;;;;;;;7.20;2.53;;;21.40;78.90;;;;;;5051589;28;20420;-82
2022/09/22 12:52:46;;;;;;;3.30;1.90;;;22.20;78.10;;;;;;5035802;28;20425;-82
2022/09/22 12:55:40;;;;;;;1.83;1.73;;;23.70;70.90;;;;;;5044645;28;20465;-83
2022/09/22 12:58:43;;;;;;;2.17;1.97;;;24.00;67.40;;;;;;5038974;28;20488;-81
2022/09/22 13:01:31;;;;;;;2.80;2.00;;;24.20;68.10;;;;;;5052175;28;20561;-81
2022/09/22 13:04:17;;;;;;;2.20;2.10;;;25.00;64.20;;;;;;5050564;28;20479;-83
2022/09/22 13:07:04;;;;;;;2.63;2.03;;;26.20;61.60;;;;;;5032310;28;21074;-82
2022/09/22 13:10:08;;;;;;;2.10;2.00;;;26.70;60.40;;;;;;5005962;28;20453;-83
2022/09/22 13:13:08;;;;;;;2.13;1.93;;;27.30;59.00;;;;;;5008635;28;20426;-81
2022/09/22 13:15:58;;;;;;;2.40;2.20;;;27.50;57.60;;;;;;5032787;28;20453;-80
2022/09/22 13:18:45;;;;;;;7.60;7.00;;;26.00;57.50;;;;;;4997374;28;20437;-82
2022/09/22 13:21:32;;;;;;;1.80;1.70;;;24.00;59.10;;;;;;5022164;28;20492;-82
2022/09/22 13:24:18;;;;;;;3.87;1.97;;;23.40;59.70;;;;;;5024691;28;20417;-83
2022/09/22 13:27:03;;;;;;;1.80;1.70;;;23.00;60.70;;;;;;5007472;28;20419;-83
2022/09/22 13:30:05;;;;;;;4.17;1.87;;;22.60;59.60;;;;;;4997315;28;20492;-81
2022/09/22 13:32:50;;;;;;;8.53;2.57;;;23.90;59.90;;;;;;5038093;28;20487;-82
2022/09/22 13:35:39;;;;;;;1.63;1.47;;;24.60;59.80;;;;;;5036456;28;20484;-82
2022/09/22 13:38:23;;;;;;;1.73;1.63;;;24.90;58.50;;;;;;5046269;28;20486;-82
2022/09/22 13:41:12;;;;;;;1.73;1.63;;;25.60;60.20;;;;;;5043482;28;20428;-82
2022/09/22 13:44:01;;;;;;;2.20;2.00;;;25.90;58.90;;;;;;5056307;28;20420;-82
2022/09/22 13:46:48;;;;;;;2.07;1.87;;;25.80;57.30;;;;;;5051150;28;20940;-79
2022/09/22 13:49:40;;;;;;;1.87;1.77;;;26.90;56.50;;;;;;5013921;28;20468;-80
2022/09/22 13:52:28;;;;;;;1.80;1.70;;;27.20;54.40;;;;;;5052902;28;20226;-82
2022/09/22 13:55:21;;;;;;;1.88;1.77;;;27.90;53.30;;;;;;5031684;28;20568;-81
2022/09/22 13:58:12;;;;;;;1.92;1.83;;;28.10;52.60;;;;;;5057313;28;20210;-82
2022/09/22 14:00:59;;;;;;;2.00;1.90;;;27.00;55.00;;;;;;5048788;28;20229;-81
2022/09/22 14:03:43;;;;;;;3.20;2.85;;;27.30;54.10;;;;;;5060039;28;20194;-81
2022/09/22 14:06:31;;;;;;;2.00;1.80;;;27.30;54.10;;;;;;5051343;28;20273;-81
2022/09/22 14:09:16;;;;;;;2.08;1.95;;;26.50;52.60;;;;;;5060838;28;20313;-82
2022/09/22 14:12:02;;;;;;;1.75;1.65;;;27.40;53.10;;;;;;5033076;28;20186;-83
2022/09/22 14:14:46;;;;;;;3.20;1.90;;;28.10;51.90;;;;;;5056717;28;20197;-82
2022/09/22 14:17:31;;;;;;;2.22;2.03;;;26.60;54.50;;;;;;5043290;28;20263;-83
2022/09/22 14:20:16;;;;;;;1.83;1.70;;;25.50;55.00;;;;;;5064147;28;20208;-83
2022/09/22 14:23:00;;;;;;;1.60;1.50;;;24.90;54.70;;;;;;5048497;28;20197;-80
2022/09/22 14:25:45;;;;;;;6.83;2.17;;;25.60;54.70;;;;;;5072279;28;20428;-81
2022/09/22 14:28:35;;;;;;;2.10;1.90;;;24.70;55.20;;;;;;5062507;28;20499;-82
2022/09/22 14:31:25;;;;;;;1.80;1.70;;;24.90;54.50;;;;;;5058090;28;20440;-82
2022/09/22 14:34:21;;;;;;;1.87;1.70;;;25.20;54.60;;;;;;5065025;28;20425;-81
2022/09/22 14:37:22;;;;;;;1.70;1.30;;;23.20;54.90;;;;;;5060838;28;20429;-83
2022/09/22 14:40:15;;;;;;;1.97;1.50;;;22.50;56.50;;;;;;5062424;28;20446;-81
2022/09/22 14:43:07;;;;;;;2.03;1.30;;;22.80;56.30;;;;;;5061252;28;20740;-84
2022/09/22 14:45:58;;;;;;;1.77;1.67;;;22.50;56.40;;;;;;5068584;28;20433;-83
2022/09/22 14:48:43;;;;;;;1.80;1.70;;;23.40;56.90;;;;;;5068503;28;20484;-83
2022/09/22 14:51:31;;;;;;;2.13;1.40;;;23.50;57.10;;;;;;5069515;28;20433;-83
2022/09/22 14:54:17;;;;;;;1.83;1.73;;;23.00;56.50;;;;;;5042382;28;20484;-83
2022/09/22 14:57:06;;;;;;;1.50;1.40;;;24.00;56.90;;;;;;5043450;28;20433;-83
2022/09/22 15:03:03;;;;;;;3.50;1.83;;;23.20;57.00;;;;;;5013824;28;20465;-83
2022/09/22 15:05:49;;;;;;;1.67;1.57;;;23.90;56.60;;;;;;4995971;28;20475;-84
2022/09/22 15:08:34;;;;;;;2.80;1.70;;;24.40;56.10;;;;;;5014507;28;20431;-83
2022/09/22 15:11:18;;;;;;;2.73;1.80;;;23.10;56.80;;;;;;5007762;28;20439;-83